sensor_id;sensor_type;location;lat;lon;timestamp;P1;durP1;ratioP1;P2;durP2;ratioP2
19691;SDS011;42748;50.016;19.890;2023-05-07T00:00:02;36.42;;;21.67;;
19691;SDS011;42748;50.016;19.890;2023-05-07T00:02:33;37.65;;;22.13;;
19691;SDS011;42748;50.016;19.890;2023-05-07T00:05:02;37.33;;;21.70;;
19691;SDS011;42748;50.016;19.890;2023-05-07T00:07:30;37.53;;;22.30;;
19691;SDS011;42748;50.016;19.890;2023-05-07T00:09:57;36.08;;;22.15;;
19691;SDS011;42748;50.016;19.890;2023-05-07T00:12:24;39.95;;;22.92;;
19691;SDS011;42748;50.016;19.890;2023-05-07T00:14:52;41.08;;;23.85;;
19691;SDS011;42748;50.016;19.890;2023-05-07T00:17:19;38.55;;;23.33;;
19691;SDS011;42748;50.016;19.890;2023-05-07T00:19:47;40.67;;;24.00;;
19691;SDS011;42748;50.016;19.890;2023-05-07T00:22:14;37.58;;;23.05;;
19691;SDS011;42748;50.016;19.890;2023-05-07T00:24:42;37.75;;;23.10;;
19691;SDS011;42748;50.016;19.890;2023-05-07T00:27:09;38.90;;;23.42;;
19691;SDS011;42748;50.016;19.890;2023-05-07T00:29:37;38.55;;;24.00;;
19691;SDS011;42748;50.016;19.890;2023-05-07T00:32:04;38.92;;;23.25;;
19691;SDS011;42748;50.016;19.890;2023-05-07T00:34:32;39.75;;;23.42;;
19691;SDS011;42748;50.016;19.890;2023-05-07T00:37:00;39.03;;;23.58;;
19691;SDS011;42748;50.016;19.890;2023-05-07T00:39:30;39.92;;;23.88;;
19691;SDS011;42748;50.016;19.890;2023-05-07T00:41:58;39.10;;;23.77;;
19691;SDS011;42748;50.016;19.890;2023-05-07T00:44:26;38.17;;;23.35;;
19691;SDS011;42748;50.016;19.890;2023-05-07T00:46:58;37.35;;;22.77;;
19691;SDS011;42748;50.016;19.890;2023-05-07T00:49:33;39.35;;;21.58;;
19691;SDS011;42748;50.016;19.890;2023-05-07T00:52:02;39.78;;;22.73;;
19691;SDS011;42748;50.016;19.890;2023-05-07T00:54:30;37.45;;;21.75;;
19691;SDS011;42748;50.016;19.890;2023-05-07T00:56:58;40.28;;;21.10;;
19691;SDS011;42748;50.016;19.890;2023-05-07T00:59:25;36.80;;;22.33;;
19691;SDS011;42748;50.016;19.890;2023-05-07T01:01:53;37.35;;;21.20;;
19691;SDS011;42748;50.016;19.890;2023-05-07T01:04:21;36.35;;;20.75;;
19691;SDS011;42748;50.016;19.890;2023-05-07T01:06:49;31.80;;;19.50;;
19691;SDS011;42748;50.016;19.890;2023-05-07T01:09:17;33.70;;;18.75;;
19691;SDS011;42748;50.016;19.890;2023-05-07T01:11:47;33.90;;;19.27;;
19691;SDS011;42748;50.016;19.890;2023-05-07T01:14:15;32.85;;;19.50;;
19691;SDS011;42748;50.016;19.890;2023-05-07T01:16:43;35.95;;;19.15;;
19691;SDS011;42748;50.016;19.890;2023-05-07T01:19:11;31.00;;;18.45;;
19691;SDS011;42748;50.016;19.890;2023-05-07T01:21:40;33.97;;;19.48;;
19691;SDS011;42748;50.016;19.890;2023-05-07T01:24:12;33.97;;;18.83;;
19691;SDS011;42748;50.016;19.890;2023-05-07T01:26:39;32.80;;;19.25;;
19691;SDS011;42748;50.016;19.890;2023-05-07T01:29:07;34.10;;;19.00;;
19691;SDS011;42748;50.016;19.890;2023-05-07T01:31:35;32.20;;;19.75;;
19691;SDS011;42748;50.016;19.890;2023-05-07T01:34:03;33.13;;;18.30;;
19691;SDS011;42748;50.016;19.890;2023-05-07T01:36:30;30.48;;;17.92;;
19691;SDS011;42748;50.016;19.890;2023-05-07T01:39:00;33.35;;;18.90;;
19691;SDS011;42748;50.016;19.890;2023-05-07T01:41:27;32.67;;;17.85;;
19691;SDS011;42748;50.016;19.890;2023-05-07T01:43:55;35.33;;;18.98;;
19691;SDS011;42748;50.016;19.890;2023-05-07T01:46:24;31.35;;;18.42;;
19691;SDS011;42748;50.016;19.890;2023-05-07T01:48:54;32.50;;;18.70;;
19691;SDS011;42748;50.016;19.890;2023-05-07T01:51:22;30.50;;;18.20;;
19691;SDS011;42748;50.016;19.890;2023-05-07T01:53:49;36.60;;;19.98;;
19691;SDS011;42748;50.016;19.890;2023-05-07T01:56:19;35.22;;;19.17;;
19691;SDS011;42748;50.016;19.890;2023-05-07T01:58:49;37.00;;;19.77;;
19691;SDS011;42748;50.016;19.890;2023-05-07T02:01:18;35.40;;;20.45;;
19691;SDS011;42748;50.016;19.890;2023-05-07T02:03:46;43.90;;;22.05;;
19691;SDS011;42748;50.016;19.890;2023-05-07T02:06:20;43.35;;;23.35;;
19691;SDS011;42748;50.016;19.890;2023-05-07T02:08:50;42.72;;;22.75;;
19691;SDS011;42748;50.016;19.890;2023-05-07T02:11:18;44.78;;;22.75;;
19691;SDS011;42748;50.016;19.890;2023-05-07T02:13:46;44.55;;;23.35;;
19691;SDS011;42748;50.016;19.890;2023-05-07T02:16:13;45.20;;;23.75;;
19691;SDS011;42748;50.016;19.890;2023-05-07T02:18:41;42.17;;;23.15;;
19691;SDS011;42748;50.016;19.890;2023-05-07T02:21:08;41.13;;;21.73;;
19691;SDS011;42748;50.016;19.890;2023-05-07T02:23:36;43.63;;;22.65;;
19691;SDS011;42748;50.016;19.890;2023-05-07T02:26:04;40.50;;;20.92;;
19691;SDS011;42748;50.016;19.890;2023-05-07T02:28:32;40.42;;;21.73;;
19691;SDS011;42748;50.016;19.890;2023-05-07T02:31:03;37.17;;;19.90;;
19691;SDS011;42748;50.016;19.890;2023-05-07T02:33:32;38.83;;;21.33;;
19691;SDS011;42748;50.016;19.890;2023-05-07T02:36:07;37.45;;;19.58;;
19691;SDS011;42748;50.016;19.890;2023-05-07T02:38:38;33.90;;;19.20;;
19691;SDS011;42748;50.016;19.890;2023-05-07T02:41:06;36.80;;;18.52;;
19691;SDS011;42748;50.016;19.890;2023-05-07T02:43:33;33.75;;;18.77;;
19691;SDS011;42748;50.016;19.890;2023-05-07T02:48:29;32.20;;;18.10;;
19691;SDS011;42748;50.016;19.890;2023-05-07T02:50:57;32.85;;;17.55;;
19691;SDS011;42748;50.016;19.890;2023-05-07T02:53:25;35.45;;;19.20;;
19691;SDS011;42748;50.016;19.890;2023-05-07T02:56:01;33.35;;;17.83;;
19691;SDS011;42748;50.016;19.890;2023-05-07T02:58:29;33.97;;;17.73;;
19691;SDS011;42748;50.016;19.890;2023-05-07T03:00:59;31.05;;;17.63;;
19691;SDS011;42748;50.016;19.890;2023-05-07T03:03:31;28.88;;;16.77;;
19691;SDS011;42748;50.016;19.890;2023-05-07T03:05:59;29.20;;;15.43;;
19691;SDS011;42748;50.016;19.890;2023-05-07T03:08:27;27.00;;;15.50;;
19691;SDS011;42748;50.016;19.890;2023-05-07T03:10:54;27.10;;;15.50;;
19691;SDS011;42748;50.016;19.890;2023-05-07T03:13:22;27.20;;;15.13;;
19691;SDS011;42748;50.016;19.890;2023-05-07T03:15:50;24.52;;;14.82;;
19691;SDS011;42748;50.016;19.890;2023-05-07T03:18:18;25.27;;;14.93;;
19691;SDS011;42748;50.016;19.890;2023-05-07T03:20:46;25.48;;;14.38;;
19691;SDS011;42748;50.016;19.890;2023-05-07T03:23:14;24.17;;;14.07;;
19691;SDS011;42748;50.016;19.890;2023-05-07T03:25:42;22.58;;;13.57;;
19691;SDS011;42748;50.016;19.890;2023-05-07T03:28:09;21.48;;;12.80;;
19691;SDS011;42748;50.016;19.890;2023-05-07T03:30:43;24.25;;;13.38;;
19691;SDS011;42748;50.016;19.890;2023-05-07T03:33:11;20.48;;;12.07;;
19691;SDS011;42748;50.016;19.890;2023-05-07T03:35:38;21.02;;;11.75;;
19691;SDS011;42748;50.016;19.890;2023-05-07T03:38:06;21.08;;;11.80;;
19691;SDS011;42748;50.016;19.890;2023-05-07T03:40:35;20.70;;;12.75;;
19691;SDS011;42748;50.016;19.890;2023-05-07T03:43:03;18.83;;;11.55;;
19691;SDS011;42748;50.016;19.890;2023-05-07T03:45:34;19.52;;;11.80;;
19691;SDS011;42748;50.016;19.890;2023-05-07T03:48:12;18.52;;;9.98;;
19691;SDS011;42748;50.016;19.890;2023-05-07T03:50:40;14.15;;;8.57;;
19691;SDS011;42748;50.016;19.890;2023-05-07T03:53:07;10.90;;;7.45;;
19691;SDS011;42748;50.016;19.890;2023-05-07T03:55:38;9.93;;;6.40;;
19691;SDS011;42748;50.016;19.890;2023-05-07T03:58:05;9.18;;;6.28;;
19691;SDS011;42748;50.016;19.890;2023-05-07T04:00:33;8.82;;;5.38;;
19691;SDS011;42748;50.016;19.890;2023-05-07T04:03:14;8.52;;;5.75;;
19691;SDS011;42748;50.016;19.890;2023-05-07T04:05:41;7.78;;;5.45;;
19691;SDS011;42748;50.016;19.890;2023-05-07T04:08:09;8.13;;;5.43;;
19691;SDS011;42748;50.016;19.890;2023-05-07T04:10:40;11.43;;;5.50;;
19691;SDS011;42748;50.016;19.890;2023-05-07T04:13:09;10.30;;;5.88;;
19691;SDS011;42748;50.016;19.890;2023-05-07T04:15:37;11.30;;;6.05;;
19691;SDS011;42748;50.016;19.890;2023-05-07T04:18:08;8.18;;;5.75;;
19691;SDS011;42748;50.016;19.890;2023-05-07T04:20:37;8.93;;;6.03;;
19691;SDS011;42748;50.016;19.890;2023-05-07T04:23:09;7.28;;;5.60;;
19691;SDS011;42748;50.016;19.890;2023-05-07T04:25:37;8.07;;;5.93;;
19691;SDS011;42748;50.016;19.890;2023-05-07T04:28:24;7.72;;;5.80;;
19691;SDS011;42748;50.016;19.890;2023-05-07T04:30:52;7.90;;;5.70;;
19691;SDS011;42748;50.016;19.890;2023-05-07T04:33:20;8.95;;;4.85;;
19691;SDS011;42748;50.016;19.890;2023-05-07T04:35:49;6.47;;;4.80;;
19691;SDS011;42748;50.016;19.890;2023-05-07T04:38:17;7.68;;;4.72;;
19691;SDS011;42748;50.016;19.890;2023-05-07T04:40:47;7.25;;;4.75;;
19691;SDS011;42748;50.016;19.890;2023-05-07T04:43:19;7.57;;;4.85;;
19691;SDS011;42748;50.016;19.890;2023-05-07T04:45:50;6.53;;;4.57;;
19691;SDS011;42748;50.016;19.890;2023-05-07T04:48:18;6.90;;;4.25;;
19691;SDS011;42748;50.016;19.890;2023-05-07T04:50:48;8.27;;;4.50;;
19691;SDS011;42748;50.016;19.890;2023-05-07T04:53:17;5.43;;;3.70;;
19691;SDS011;42748;50.016;19.890;2023-05-07T04:55:45;7.38;;;4.70;;
19691;SDS011;42748;50.016;19.890;2023-05-07T04:58:13;5.38;;;4.07;;
19691;SDS011;42748;50.016;19.890;2023-05-07T05:00:45;8.90;;;4.60;;
19691;SDS011;42748;50.016;19.890;2023-05-07T05:03:15;7.65;;;4.70;;
19691;SDS011;42748;50.016;19.890;2023-05-07T05:05:43;7.57;;;4.47;;
19691;SDS011;42748;50.016;19.890;2023-05-07T05:08:11;8.25;;;4.68;;
19691;SDS011;42748;50.016;19.890;2023-05-07T05:10:41;6.78;;;4.53;;
19691;SDS011;42748;50.016;19.890;2023-05-07T05:13:10;6.07;;;3.97;;
19691;SDS011;42748;50.016;19.890;2023-05-07T05:15:40;7.43;;;4.38;;
19691;SDS011;42748;50.016;19.890;2023-05-07T05:18:08;5.60;;;4.18;;
19691;SDS011;42748;50.016;19.890;2023-05-07T05:20:38;6.80;;;3.97;;
19691;SDS011;42748;50.016;19.890;2023-05-07T05:23:07;7.35;;;4.03;;
19691;SDS011;42748;50.016;19.890;2023-05-07T05:25:36;7.75;;;4.50;;
19691;SDS011;42748;50.016;19.890;2023-05-07T05:28:08;8.00;;;4.55;;
19691;SDS011;42748;50.016;19.890;2023-05-07T05:30:36;7.57;;;4.35;;
19691;SDS011;42748;50.016;19.890;2023-05-07T05:33:03;8.25;;;4.22;;
19691;SDS011;42748;50.016;19.890;2023-05-07T05:35:31;8.10;;;4.30;;
19691;SDS011;42748;50.016;19.890;2023-05-07T05:38:03;6.45;;;4.05;;
19691;SDS011;42748;50.016;19.890;2023-05-07T05:40:32;8.68;;;4.20;;
19691;SDS011;42748;50.016;19.890;2023-05-07T05:43:01;8.00;;;4.10;;
19691;SDS011;42748;50.016;19.890;2023-05-07T05:45:29;6.80;;;4.20;;
19691;SDS011;42748;50.016;19.890;2023-05-07T05:47:56;5.43;;;4.10;;
19691;SDS011;42748;50.016;19.890;2023-05-07T05:50:24;6.40;;;3.92;;
19691;SDS011;42748;50.016;19.890;2023-05-07T05:52:54;5.35;;;3.90;;
19691;SDS011;42748;50.016;19.890;2023-05-07T05:55:22;7.43;;;4.28;;
19691;SDS011;42748;50.016;19.890;2023-05-07T05:57:50;5.82;;;4.22;;
19691;SDS011;42748;50.016;19.890;2023-05-07T06:00:18;7.50;;;4.32;;
19691;SDS011;42748;50.016;19.890;2023-05-07T06:02:56;6.78;;;3.70;;
19691;SDS011;42748;50.016;19.890;2023-05-07T06:05:24;4.90;;;3.35;;
19691;SDS011;42748;50.016;19.890;2023-05-07T06:07:54;4.70;;;3.53;;
19691;SDS011;42748;50.016;19.890;2023-05-07T06:10:21;5.65;;;3.67;;
19691;SDS011;42748;50.016;19.890;2023-05-07T06:12:50;5.40;;;3.63;;
19691;SDS011;42748;50.016;19.890;2023-05-07T06:15:18;4.35;;;3.40;;
19691;SDS011;42748;50.016;19.890;2023-05-07T06:17:46;6.22;;;3.88;;
19691;SDS011;42748;50.016;19.890;2023-05-07T06:20:16;9.50;;;3.65;;
19691;SDS011;42748;50.016;19.890;2023-05-07T06:22:44;5.28;;;3.92;;
19691;SDS011;42748;50.016;19.890;2023-05-07T06:25:13;6.07;;;3.83;;
19691;SDS011;42748;50.016;19.890;2023-05-07T06:27:42;6.32;;;4.13;;
19691;SDS011;42748;50.016;19.890;2023-05-07T06:30:09;5.93;;;3.67;;
19691;SDS011;42748;50.016;19.890;2023-05-07T06:32:39;5.68;;;3.80;;
19691;SDS011;42748;50.016;19.890;2023-05-07T06:35:08;5.05;;;3.60;;
19691;SDS011;42748;50.016;19.890;2023-05-07T06:37:38;5.68;;;3.78;;
19691;SDS011;42748;50.016;19.890;2023-05-07T06:40:07;4.20;;;3.25;;
19691;SDS011;42748;50.016;19.890;2023-05-07T06:42:37;7.72;;;4.03;;
19691;SDS011;42748;50.016;19.890;2023-05-07T06:45:33;5.85;;;3.63;;
19691;SDS011;42748;50.016;19.890;2023-05-07T06:48:01;5.18;;;3.10;;
19691;SDS011;42748;50.016;19.890;2023-05-07T06:50:33;6.65;;;3.58;;
19691;SDS011;42748;50.016;19.890;2023-05-07T06:53:01;5.55;;;3.40;;
19691;SDS011;42748;50.016;19.890;2023-05-07T06:55:30;6.15;;;3.65;;
19691;SDS011;42748;50.016;19.890;2023-05-07T06:57:58;6.10;;;3.70;;
19691;SDS011;42748;50.016;19.890;2023-05-07T07:00:27;6.47;;;3.60;;
19691;SDS011;42748;50.016;19.890;2023-05-07T07:02:55;6.15;;;3.60;;
19691;SDS011;42748;50.016;19.890;2023-05-07T07:05:26;5.32;;;3.38;;
19691;SDS011;42748;50.016;19.890;2023-05-07T07:07:54;7.00;;;3.30;;
19691;SDS011;42748;50.016;19.890;2023-05-07T07:10:21;5.65;;;3.60;;
19691;SDS011;42748;50.016;19.890;2023-05-07T07:12:50;6.35;;;3.72;;
19691;SDS011;42748;50.016;19.890;2023-05-07T07:15:20;5.57;;;3.97;;
19691;SDS011;42748;50.016;19.890;2023-05-07T07:17:49;4.65;;;3.53;;
19691;SDS011;42748;50.016;19.890;2023-05-07T07:20:16;8.00;;;3.95;;
19691;SDS011;42748;50.016;19.890;2023-05-07T07:22:45;7.22;;;4.05;;
19691;SDS011;42748;50.016;19.890;2023-05-07T07:25:14;7.32;;;3.75;;
19691;SDS011;42748;50.016;19.890;2023-05-07T07:27:42;4.43;;;3.50;;
19691;SDS011;42748;50.016;19.890;2023-05-07T07:30:11;5.03;;;3.50;;
19691;SDS011;42748;50.016;19.890;2023-05-07T07:32:42;5.40;;;3.45;;
19691;SDS011;42748;50.016;19.890;2023-05-07T07:35:09;4.78;;;3.72;;
19691;SDS011;42748;50.016;19.890;2023-05-07T07:37:38;5.18;;;3.53;;
19691;SDS011;42748;50.016;19.890;2023-05-07T07:40:06;6.00;;;3.65;;
19691;SDS011;42748;50.016;19.890;2023-05-07T07:42:35;5.93;;;3.72;;
19691;SDS011;42748;50.016;19.890;2023-05-07T07:45:03;6.05;;;4.20;;
19691;SDS011;42748;50.016;19.890;2023-05-07T07:47:33;5.85;;;4.28;;
19691;SDS011;42748;50.016;19.890;2023-05-07T07:50:01;7.63;;;4.88;;
19691;SDS011;42748;50.016;19.890;2023-05-07T07:52:29;9.20;;;5.22;;
19691;SDS011;42748;50.016;19.890;2023-05-07T07:54:56;8.20;;;5.10;;
19691;SDS011;42748;50.016;19.890;2023-05-07T07:57:24;6.55;;;4.60;;
19691;SDS011;42748;50.016;19.890;2023-05-07T07:59:52;6.07;;;4.30;;
19691;SDS011;42748;50.016;19.890;2023-05-07T08:02:20;7.82;;;4.30;;
19691;SDS011;42748;50.016;19.890;2023-05-07T08:04:48;6.22;;;4.20;;
19691;SDS011;42748;50.016;19.890;2023-05-07T08:07:16;5.43;;;3.80;;
19691;SDS011;42748;50.016;19.890;2023-05-07T08:09:49;5.68;;;3.60;;
19691;SDS011;42748;50.016;19.890;2023-05-07T08:12:20;4.72;;;3.25;;
19691;SDS011;42748;50.016;19.890;2023-05-07T08:14:48;6.88;;;3.78;;
19691;SDS011;42748;50.016;19.890;2023-05-07T08:17:16;6.65;;;3.80;;
19691;SDS011;42748;50.016;19.890;2023-05-07T08:19:44;5.30;;;3.67;;
19691;SDS011;42748;50.016;19.890;2023-05-07T08:22:13;5.88;;;4.38;;
19691;SDS011;42748;50.016;19.890;2023-05-07T08:24:41;7.15;;;4.10;;
19691;SDS011;42748;50.016;19.890;2023-05-07T08:27:10;8.82;;;4.90;;
19691;SDS011;42748;50.016;19.890;2023-05-07T08:29:40;6.65;;;4.72;;
19691;SDS011;42748;50.016;19.890;2023-05-07T08:32:07;8.55;;;4.80;;
19691;SDS011;42748;50.016;19.890;2023-05-07T08:34:35;6.03;;;4.13;;
19691;SDS011;42748;50.016;19.890;2023-05-07T08:37:04;9.27;;;5.28;;
19691;SDS011;42748;50.016;19.890;2023-05-07T08:39:32;6.97;;;5.03;;
19691;SDS011;42748;50.016;19.890;2023-05-07T08:42:04;8.30;;;4.68;;
19691;SDS011;42748;50.016;19.890;2023-05-07T08:44:33;5.97;;;4.45;;
19691;SDS011;42748;50.016;19.890;2023-05-07T08:47:01;7.07;;;4.85;;
19691;SDS011;42748;50.016;19.890;2023-05-07T08:49:30;9.73;;;5.72;;
19691;SDS011;42748;50.016;19.890;2023-05-07T08:51:58;8.20;;;5.90;;
19691;SDS011;42748;50.016;19.890;2023-05-07T08:54:27;9.95;;;6.45;;
19691;SDS011;42748;50.016;19.890;2023-05-07T08:56:56;9.75;;;6.55;;
19691;SDS011;42748;50.016;19.890;2023-05-07T08:59:23;11.02;;;7.07;;
19691;SDS011;42748;50.016;19.890;2023-05-07T09:01:51;9.43;;;6.60;;
19691;SDS011;42748;50.016;19.890;2023-05-07T09:04:19;10.18;;;7.10;;
19691;SDS011;42748;50.016;19.890;2023-05-07T09:06:47;12.15;;;7.47;;
19691;SDS011;42748;50.016;19.890;2023-05-07T09:09:15;11.55;;;7.25;;
19691;SDS011;42748;50.016;19.890;2023-05-07T09:11:45;10.70;;;7.05;;
19691;SDS011;42748;50.016;19.890;2023-05-07T09:14:17;11.18;;;7.60;;
19691;SDS011;42748;50.016;19.890;2023-05-07T09:16:45;10.48;;;7.68;;
19691;SDS011;42748;50.016;19.890;2023-05-07T09:19:13;12.55;;;8.80;;
19691;SDS011;42748;50.016;19.890;2023-05-07T09:21:44;15.70;;;8.95;;
19691;SDS011;42748;50.016;19.890;2023-05-07T09:24:14;13.52;;;8.60;;
19691;SDS011;42748;50.016;19.890;2023-05-07T09:26:43;15.50;;;8.60;;
19691;SDS011;42748;50.016;19.890;2023-05-07T09:29:12;13.38;;;8.98;;
19691;SDS011;42748;50.016;19.890;2023-05-07T09:31:40;12.73;;;7.90;;
19691;SDS011;42748;50.016;19.890;2023-05-07T09:34:11;12.63;;;7.60;;
19691;SDS011;42748;50.016;19.890;2023-05-07T09:36:41;10.18;;;7.40;;
19691;SDS011;42748;50.016;19.890;2023-05-07T09:39:10;10.65;;;6.95;;
19691;SDS011;42748;50.016;19.890;2023-05-07T09:41:44;9.85;;;7.05;;
19691;SDS011;42748;50.016;19.890;2023-05-07T09:44:18;11.48;;;6.80;;
19691;SDS011;42748;50.016;19.890;2023-05-07T09:46:51;9.57;;;6.97;;
19691;SDS011;42748;50.016;19.890;2023-05-07T09:49:29;10.05;;;6.70;;
19691;SDS011;42748;50.016;19.890;2023-05-07T09:52:02;8.73;;;6.18;;
19691;SDS011;42748;50.016;19.890;2023-05-07T09:54:35;9.00;;;6.47;;
19691;SDS011;42748;50.016;19.890;2023-05-07T09:57:05;9.52;;;6.13;;
19691;SDS011;42748;50.016;19.890;2023-05-07T09:59:33;7.88;;;5.50;;
19691;SDS011;42748;50.016;19.890;2023-05-07T10:02:04;10.55;;;6.28;;
19691;SDS011;42748;50.016;19.890;2023-05-07T10:04:39;8.88;;;6.28;;
19691;SDS011;42748;50.016;19.890;2023-05-07T10:07:08;9.30;;;5.43;;
19691;SDS011;42748;50.016;19.890;2023-05-07T10:09:36;9.52;;;5.80;;
19691;SDS011;42748;50.016;19.890;2023-05-07T10:12:10;8.05;;;5.88;;
19691;SDS011;42748;50.016;19.890;2023-05-07T10:14:38;8.93;;;5.85;;
19691;SDS011;42748;50.016;19.890;2023-05-07T10:17:06;8.75;;;5.85;;
19691;SDS011;42748;50.016;19.890;2023-05-07T10:19:34;8.27;;;5.47;;
19691;SDS011;42748;50.016;19.890;2023-05-07T10:22:04;8.73;;;5.35;;
19691;SDS011;42748;50.016;19.890;2023-05-07T10:24:38;8.30;;;4.82;;
19691;SDS011;42748;50.016;19.890;2023-05-07T10:27:12;7.38;;;5.07;;
19691;SDS011;42748;50.016;19.890;2023-05-07T10:32:37;8.13;;;5.82;;
19691;SDS011;42748;50.016;19.890;2023-05-07T10:35:10;9.00;;;6.13;;
19691;SDS011;42748;50.016;19.890;2023-05-07T10:37:40;8.00;;;5.60;;
19691;SDS011;42748;50.016;19.890;2023-05-07T10:40:08;9.50;;;5.75;;
19691;SDS011;42748;50.016;19.890;2023-05-07T10:42:36;7.82;;;5.65;;
19691;SDS011;42748;50.016;19.890;2023-05-07T10:45:13;11.43;;;5.70;;
19691;SDS011;42748;50.016;19.890;2023-05-07T10:53:43;10.23;;;6.82;;
19691;SDS011;42748;50.016;19.890;2023-05-07T10:58:56;10.57;;;6.28;;
19691;SDS011;42748;50.016;19.890;2023-05-07T11:04:15;8.52;;;5.40;;
19691;SDS011;42748;50.016;19.890;2023-05-07T11:07:27;9.50;;;6.18;;
19691;SDS011;42748;50.016;19.890;2023-05-07T11:10:00;8.57;;;5.53;;
19691;SDS011;42748;50.016;19.890;2023-05-07T11:15:34;9.68;;;5.68;;
19691;SDS011;42748;50.016;19.890;2023-05-07T11:18:05;9.70;;;6.32;;
19691;SDS011;42748;50.016;19.890;2023-05-07T11:20:56;9.73;;;6.75;;
19691;SDS011;42748;50.016;19.890;2023-05-07T11:26:25;8.70;;;6.53;;
19691;SDS011;42748;50.016;19.890;2023-05-07T11:28:53;10.02;;;6.68;;
19691;SDS011;42748;50.016;19.890;2023-05-07T11:31:24;10.55;;;7.18;;
19691;SDS011;42748;50.016;19.890;2023-05-07T11:33:53;9.65;;;6.95;;
19691;SDS011;42748;50.016;19.890;2023-05-07T11:36:22;8.35;;;6.25;;
19691;SDS011;42748;50.016;19.890;2023-05-07T11:38:52;8.82;;;5.75;;
19691;SDS011;42748;50.016;19.890;2023-05-07T11:41:20;10.25;;;7.00;;
19691;SDS011;42748;50.016;19.890;2023-05-07T11:43:58;8.20;;;6.10;;
19691;SDS011;42748;50.016;19.890;2023-05-07T11:46:26;7.30;;;5.20;;
19691;SDS011;42748;50.016;19.890;2023-05-07T11:48:54;7.47;;;4.95;;
19691;SDS011;42748;50.016;19.890;2023-05-07T11:51:23;9.32;;;5.20;;
19691;SDS011;42748;50.016;19.890;2023-05-07T11:53:52;6.80;;;4.97;;
19691;SDS011;42748;50.016;19.890;2023-05-07T11:56:20;8.57;;;5.35;;
19691;SDS011;42748;50.016;19.890;2023-05-07T11:58:47;6.13;;;4.53;;
19691;SDS011;42748;50.016;19.890;2023-05-07T12:01:16;7.05;;;4.63;;
19691;SDS011;42748;50.016;19.890;2023-05-07T12:03:44;5.45;;;4.20;;
19691;SDS011;42748;50.016;19.890;2023-05-07T12:06:14;5.82;;;4.05;;
19691;SDS011;42748;50.016;19.890;2023-05-07T12:08:42;5.97;;;3.92;;
19691;SDS011;42748;50.016;19.890;2023-05-07T12:11:15;4.72;;;3.63;;
19691;SDS011;42748;50.016;19.890;2023-05-07T12:13:44;5.50;;;3.63;;
19691;SDS011;42748;50.016;19.890;2023-05-07T12:16:11;5.22;;;3.40;;
19691;SDS011;42748;50.016;19.890;2023-05-07T12:18:39;5.18;;;3.85;;
19691;SDS011;42748;50.016;19.890;2023-05-07T12:21:07;5.43;;;4.03;;
19691;SDS011;42748;50.016;19.890;2023-05-07T12:23:35;6.57;;;4.13;;
19691;SDS011;42748;50.016;19.890;2023-05-07T12:26:03;6.88;;;4.15;;
19691;SDS011;42748;50.016;19.890;2023-05-07T12:28:37;6.70;;;4.05;;
19691;SDS011;42748;50.016;19.890;2023-05-07T12:31:06;7.93;;;4.50;;
19691;SDS011;42748;50.016;19.890;2023-05-07T12:33:34;5.50;;;4.03;;
19691;SDS011;42748;50.016;19.890;2023-05-07T12:36:03;5.78;;;4.13;;
19691;SDS011;42748;50.016;19.890;2023-05-07T12:38:34;6.60;;;4.85;;
19691;SDS011;42748;50.016;19.890;2023-05-07T12:41:02;7.00;;;4.03;;
19691;SDS011;42748;50.016;19.890;2023-05-07T12:43:30;6.68;;;4.32;;
19691;SDS011;42748;50.016;19.890;2023-05-07T12:45:58;6.28;;;4.40;;
19691;SDS011;42748;50.016;19.890;2023-05-07T12:48:27;6.60;;;4.47;;
19691;SDS011;42748;50.016;19.890;2023-05-07T12:50:58;5.60;;;4.13;;
19691;SDS011;42748;50.016;19.890;2023-05-07T12:53:27;6.05;;;4.05;;
19691;SDS011;42748;50.016;19.890;2023-05-07T12:55:55;5.20;;;4.05;;
19691;SDS011;42748;50.016;19.890;2023-05-07T12:58:24;6.82;;;4.18;;
19691;SDS011;42748;50.016;19.890;2023-05-07T13:00:53;5.63;;;4.07;;
19691;SDS011;42748;50.016;19.890;2023-05-07T13:06:00;5.18;;;3.88;;
19691;SDS011;42748;50.016;19.890;2023-05-07T13:10:56;7.80;;;4.63;;
19691;SDS011;42748;50.016;19.890;2023-05-07T13:13:24;6.18;;;4.35;;
19691;SDS011;42748;50.016;19.890;2023-05-07T13:15:53;8.60;;;4.70;;
19691;SDS011;42748;50.016;19.890;2023-05-07T13:18:21;8.02;;;4.32;;
19691;SDS011;42748;50.016;19.890;2023-05-07T13:20:49;6.05;;;4.25;;
19691;SDS011;42748;50.016;19.890;2023-05-07T13:23:16;7.18;;;4.85;;
19691;SDS011;42748;50.016;19.890;2023-05-07T13:25:44;7.15;;;4.70;;
19691;SDS011;42748;50.016;19.890;2023-05-07T13:28:14;9.18;;;5.00;;
19691;SDS011;42748;50.016;19.890;2023-05-07T13:30:42;6.45;;;4.78;;
19691;SDS011;42748;50.016;19.890;2023-05-07T13:33:12;6.07;;;4.32;;
19691;SDS011;42748;50.016;19.890;2023-05-07T13:35:39;6.80;;;4.85;;
19691;SDS011;42748;50.016;19.890;2023-05-07T13:38:07;6.13;;;4.57;;
19691;SDS011;42748;50.016;19.890;2023-05-07T13:40:34;6.40;;;4.20;;
19691;SDS011;42748;50.016;19.890;2023-05-07T13:43:02;6.72;;;4.20;;
19691;SDS011;42748;50.016;19.890;2023-05-07T13:45:30;5.47;;;4.10;;
19691;SDS011;42748;50.016;19.890;2023-05-07T13:47:57;6.13;;;4.60;;
19691;SDS011;42748;50.016;19.890;2023-05-07T13:50:25;6.70;;;4.38;;
19691;SDS011;42748;50.016;19.890;2023-05-07T13:52:56;6.20;;;4.43;;
19691;SDS011;42748;50.016;19.890;2023-05-07T13:55:24;5.93;;;4.30;;
19691;SDS011;42748;50.016;19.890;2023-05-07T13:57:58;6.78;;;4.88;;
19691;SDS011;42748;50.016;19.890;2023-05-07T14:00:27;9.02;;;4.78;;
19691;SDS011;42748;50.016;19.890;2023-05-07T14:02:55;5.53;;;4.20;;
19691;SDS011;42748;50.016;19.890;2023-05-07T14:05:24;6.40;;;4.88;;
19691;SDS011;42748;50.016;19.890;2023-05-07T14:07:53;6.65;;;4.78;;
19691;SDS011;42748;50.016;19.890;2023-05-07T14:10:20;6.80;;;4.78;;
19691;SDS011;42748;50.016;19.890;2023-05-07T14:12:48;7.88;;;5.07;;
19691;SDS011;42748;50.016;19.890;2023-05-07T14:15:15;7.60;;;5.00;;
19691;SDS011;42748;50.016;19.890;2023-05-07T14:17:43;7.68;;;5.50;;
19691;SDS011;42748;50.016;19.890;2023-05-07T14:20:11;7.30;;;5.38;;
19691;SDS011;42748;50.016;19.890;2023-05-07T14:22:39;7.40;;;5.55;;
19691;SDS011;42748;50.016;19.890;2023-05-07T14:25:07;8.13;;;5.65;;
19691;SDS011;42748;50.016;19.890;2023-05-07T14:27:36;8.27;;;6.00;;
19691;SDS011;42748;50.016;19.890;2023-05-07T14:30:04;9.07;;;5.68;;
19691;SDS011;42748;50.016;19.890;2023-05-07T14:32:32;8.00;;;5.45;;
19691;SDS011;42748;50.016;19.890;2023-05-07T14:34:59;7.72;;;5.55;;
19691;SDS011;42748;50.016;19.890;2023-05-07T14:37:27;10.88;;;6.22;;
19691;SDS011;42748;50.016;19.890;2023-05-07T14:39:55;8.68;;;6.18;;
19691;SDS011;42748;50.016;19.890;2023-05-07T14:42:22;8.82;;;5.88;;
19691;SDS011;42748;50.016;19.890;2023-05-07T14:44:50;8.27;;;5.55;;
19691;SDS011;42748;50.016;19.890;2023-05-07T14:47:19;8.93;;;6.03;;
19691;SDS011;42748;50.016;19.890;2023-05-07T14:49:47;8.88;;;5.85;;
19691;SDS011;42748;50.016;19.890;2023-05-07T14:52:14;9.43;;;6.05;;
19691;SDS011;42748;50.016;19.890;2023-05-07T14:54:42;9.65;;;6.25;;
19691;SDS011;42748;50.016;19.890;2023-05-07T14:57:10;9.45;;;6.15;;
19691;SDS011;42748;50.016;19.890;2023-05-07T14:59:42;10.23;;;6.78;;
19691;SDS011;42748;50.016;19.890;2023-05-07T15:02:11;10.52;;;7.10;;
19691;SDS011;42748;50.016;19.890;2023-05-07T15:04:38;10.98;;;6.63;;